Time;durP1;ratioP1;P1;durP2;ratioP2;P2;SDS_P1;SDS_P2;PMS_P1;PMS_P2;Temp;Humidity;BMP_temperature;BMP_pressure;BME280_temperature;BME280_humidity;BME280_pressure;Samples;Min_cycle;Max_cycle;Signal;HPM_P1;HPM_P2
2023/07/01 00:01:01;;;;;;;3.27;3.03;;;;;;;;;;5031191;28;20382;-85
2023/07/01 00:03:30;;;;;;;3.00;2.80;;;;;;;;;;5021875;28;20716;-85
2023/07/01 00:05:57;;;;;;;5.40;2.90;;;;;;;;;;5021810;28;20248;-84
2023/07/01 00:08:24;;;;;;;2.93;2.70;;;;;;;;;;5029238;28;20243;-86
2023/07/01 00:10:51;;;;;;;5.13;3.00;;;;;;;;;;5021294;28;20685;-85
2023/07/01 00:13:18;;;;;;;3.73;3.17;;;;;;;;;;5021729;28;20310;-86
2023/07/01 00:15:46;;;;;;;4.03;3.47;;;;;;;;;;5024741;28;20205;-86
2023/07/01 00:18:13;;;;;;;5.17;3.00;;;;;;;;;;5023390;28;22353;-86
2023/07/01 00:20:40;;;;;;;3.93;3.40;;;;;;;;;;5021207;28;20571;-85
2023/07/01 00:23:07;;;;;;;3.60;3.30;;;;;;;;;;5020770;28;20211;-85
2023/07/01 00:25:34;;;;;;;5.47;3.37;;;;;;;;;;5023916;28;20210;-86
2023/07/01 00:28:01;;;;;;;4.00;3.57;;;;;;;;;;5023495;28;20739;-86
2023/07/01 00:30:28;;;;;;;3.93;3.20;;;;;;;;;;5021829;28;20203;-85
2023/07/01 00:32:57;;;;;;;5.23;3.70;;;;;;;;;;5020323;28;20211;-86
2023/07/01 00:35:24;;;;;;;3.57;3.37;;;;;;;;;;5022610;28;20199;-85
2023/07/01 00:37:52;;;;;;;3.10;2.90;;;;;;;;;;5019024;28;20314;-85
2023/07/01 00:40:19;;;;;;;3.73;3.43;;;;;;;;;;5021206;28;20227;-85
2023/07/01 00:42:46;;;;;;;3.63;3.07;;;;;;;;;;5024297;28;20214;-85
2023/07/01 00:45:13;;;;;;;4.17;3.77;;;;;;;;;;5023443;28;20223;-85
2023/07/01 00:47:41;;;;;;;4.07;3.63;;;;;;;;;;5020624;28;20732;-85
2023/07/01 00:50:10;;;;;;;3.90;3.50;;;;;;;;;;5020224;28;20235;-86
2023/07/01 00:52:38;;;;;;;3.80;3.50;;;;;;;;;;5024163;28;20609;-86
2023/07/01 00:55:06;;;;;;;4.00;3.70;;;;;;;;;;5015735;28;20219;-86
2023/07/01 00:57:33;;;;;;;4.00;3.27;;;;;;;;;;5015513;28;20218;-87
2023/07/01 01:00:00;;;;;;;3.37;3.10;;;;;;;;;;5030009;28;20230;-85
2023/07/01 01:02:32;;;;;;;4.40;3.30;;;;;;;;;;5023546;28;20218;-86
2023/07/01 01:05:02;;;;;;;3.87;3.50;;;;;;;;;;5021868;28;20705;-86
2023/07/01 01:07:32;;;;;;;3.93;3.47;;;;;;;;;;5023999;28;20329;-86
2023/07/01 01:10:03;;;;;;;4.57;3.30;;;;;;;;;;5024522;28;20229;-86
2023/07/01 01:12:31;;;;;;;3.07;2.87;;;;;;;;;;5024747;28;20301;-86
2023/07/01 01:14:59;;;;;;;7.23;3.40;;;;;;;;;;5020820;28;20733;-86
2023/07/01 01:17:28;;;;;;;4.00;3.60;;;;;;;;;;5029445;28;20203;-86
2023/07/01 01:19:58;;;;;;;5.03;3.20;;;;;;;;;;5020554;28;20715;-86
2023/07/01 01:22:27;;;;;;;3.40;3.10;;;;;;;;;;5022558;28;20575;-85
2023/07/01 01:24:55;;;;;;;3.20;2.90;;;;;;;;;;5026429;28;20708;-86
2023/07/01 01:27:24;;;;;;;3.60;3.27;;;;;;;;;;5022142;28;20203;-86
2023/07/01 01:29:53;;;;;;;4.47;3.23;;;;;;;;;;5024178;28;20229;-86
2023/07/01 01:32:20;;;;;;;4.37;3.13;;;;;;;;;;5024576;28;20202;-85
2023/07/01 01:34:47;;;;;;;3.40;3.10;;;;;;;;;;5020096;28;20319;-86
2023/07/01 01:37:15;;;;;;;6.60;3.07;;;;;;;;;;5020145;28;20214;-85
2023/07/01 01:39:45;;;;;;;3.40;3.10;;;;;;;;;;5011881;28;20223;-85
2023/07/01 01:42:14;;;;;;;4.50;3.20;;;;;;;;;;5020955;28;20203;-84
2023/07/01 01:44:46;;;;;;;3.70;3.00;;;;;;;;;;5019884;28;20231;-85
2023/07/01 01:47:17;;;;;;;6.10;3.53;;;;;;;;;;5020720;28;20208;-86
2023/07/01 01:49:44;;;;;;;4.37;3.30;;;;;;;;;;5012510;28;20736;-86
2023/07/01 01:52:13;;;;;;;3.90;3.17;;;;;;;;;;5021113;28;20680;-86
2023/07/01 01:54:40;;;;;;;6.27;3.20;;;;;;;;;;5019638;28;20222;-86
2023/07/01 01:57:08;;;;;;;3.63;3.03;;;;;;;;;;5020489;28;20567;-86
2023/07/01 01:59:35;;;;;;;3.83;3.13;;;;;;;;;;5021909;28;20238;-86
2023/07/01 02:02:02;;;;;;;3.77;3.47;;;;;;;;;;5031895;28;20210;-84
2023/07/01 02:04:31;;;;;;;7.03;3.50;;;;;;;;;;5023080;28;20238;-86
2023/07/01 02:06:58;;;;;;;3.53;3.23;;;;;;;;;;5023236;28;20206;-86
2023/07/01 02:09:25;;;;;;;3.30;3.10;;;;;;;;;;5021890;28;20235;-86
2023/07/01 02:11:52;;;;;;;3.80;3.50;;;;;;;;;;5020330;28;20206;-85
2023/07/01 02:14:19;;;;;;;3.57;3.27;;;;;;;;;;5019528;28;20223;-86
2023/07/01 02:16:46;;;;;;;5.67;3.27;;;;;;;;;;5023282;28;20578;-86
2023/07/01 02:19:13;;;;;;;4.67;3.30;;;;;;;;;;5022454;28;20239;-86
2023/07/01 02:21:41;;;;;;;4.40;3.23;;;;;;;;;;5022437;28;20227;-86
2023/07/01 02:24:09;;;;;;;5.20;3.20;;;;;;;;;;5030349;28;20245;-86
2023/07/01 02:26:36;;;;;;;3.60;3.07;;;;;;;;;;5024681;28;20622;-86
2023/07/01 02:29:03;;;;;;;4.53;3.40;;;;;;;;;;5022875;28;20597;-86
2023/07/01 02:31:30;;;;;;;3.70;3.40;;;;;;;;;;5024725;28;20203;-86
2023/07/01 02:34:00;;;;;;;5.13;3.17;;;;;;;;;;5026779;28;20592;-86
2023/07/01 02:36:27;;;;;;;3.90;3.13;;;;;;;;;;5026656;28;20214;-85
2023/07/01 02:38:55;;;;;;;4.80;3.37;;;;;;;;;;5029922;28;20231;-85
2023/07/01 02:41:22;;;;;;;3.20;2.90;;;;;;;;;;5023722;28;20247;-85
2023/07/01 02:43:49;;;;;;;3.27;2.97;;;;;;;;;;5022776;28;20245;-86
2023/07/01 02:46:16;;;;;;;3.63;3.00;;;;;;;;;;5023460;28;20203;-86
2023/07/01 02:48:43;;;;;;;3.10;2.90;;;;;;;;;;5022916;28;20231;-85
2023/07/01 02:51:11;;;;;;;5.70;2.97;;;;;;;;;;5023373;28;20207;-86
2023/07/01 02:53:38;;;;;;;3.30;3.00;;;;;;;;;;5025353;28;20246;-86
2023/07/01 02:56:06;;;;;;;4.57;3.10;;;;;;;;;;5026639;28;20217;-85
2023/07/01 02:58:33;;;;;;;4.47;2.97;;;;;;;;;;5024005;28;20715;-86
2023/07/01 03:01:00;;;;;;;4.23;3.10;;;;;;;;;;5029241;28;20230;-86
2023/07/01 03:03:27;;;;;;;4.47;3.17;;;;;;;;;;5025410;28;20238;-85
2023/07/01 03:05:54;;;;;;;3.40;3.10;;;;;;;;;;5023277;28;20207;-85
2023/07/01 03:08:21;;;;;;;5.20;3.40;;;;;;;;;;5022186;28;20282;-85
2023/07/01 03:10:48;;;;;;;4.33;3.37;;;;;;;;;;5026752;28;20711;-86
2023/07/01 03:13:17;;;;;;;7.53;3.37;;;;;;;;;;5025858;28;20306;-85
2023/07/01 03:15:44;;;;;;;5.37;3.47;;;;;;;;;;5018060;28;20203;-86
2023/07/01 03:18:11;;;;;;;3.20;2.90;;;;;;;;;;5025438;28;20246;-86
2023/07/01 03:20:38;;;;;;;5.80;3.43;;;;;;;;;;5023735;28;20223;-85
2023/07/01 03:23:06;;;;;;;3.40;3.10;;;;;;;;;;5022158;28;20203;-86
2023/07/01 03:25:33;;;;;;;3.53;3.20;;;;;;;;;;5024111;28;20203;-86
2023/07/01 03:28:00;;;;;;;5.10;3.30;;;;;;;;;;5025376;28;20318;-86
2023/07/01 03:30:31;;;;;;;3.77;3.10;;;;;;;;;;5025514;28;20210;-85
2023/07/01 03:32:58;;;;;;;4.47;2.83;;;;;;;;;;5021203;28;20704;-85
2023/07/01 03:35:25;;;;;;;5.17;3.00;;;;;;;;;;5022960;28;20693;-86
2023/07/01 05:43:05;;;;;;;7.17;3.60;;;;;;;;;;4972190;28;20240;-87
2023/07/01 05:45:34;;;;;;;4.23;3.00;;;;;;;;;;4970251;28;20232;-86
2023/07/01 05:48:01;;;;;;;6.13;2.90;;;;;;;;;;4970910;28;20275;-84
2023/07/01 05:50:28;;;;;;;3.63;2.97;;;;;;;;;;4988241;28;20211;-87
2023/07/01 05:52:55;;;;;;;3.83;2.87;;;;;;;;;;5012092;28;20234;-85
2023/07/01 05:55:22;;;;;;;6.03;2.90;;;;;;;;;;5013352;28;20218;-87
2023/07/01 05:57:50;;;;;;;3.47;2.83;;;;;;;;;;5012731;28;20203;-87
2023/07/01 06:00:17;;;;;;;2.90;2.60;;;;;;;;;;5013536;28;20223;-84
2023/07/01 06:02:46;;;;;;;4.80;2.60;;;;;;;;;;5012754;28;20237;-87
2023/07/01 06:05:13;;;;;;;4.50;2.80;;;;;;;;;;5013871;28;20242;-88
2023/07/01 06:07:40;;;;;;;3.93;2.50;;;;;;;;;;5013184;28;20211;-87
2023/07/01 06:10:07;;;;;;;4.37;2.40;;;;;;;;;;5013003;28;20706;-85
2023/07/01 06:12:34;;;;;;;5.67;2.73;;;;;;;;;;5012171;28;20280;-86
2023/07/01 06:15:01;;;;;;;3.00;2.67;;;;;;;;;;5012905;28;20235;-87
2023/07/01 06:17:28;;;;;;;5.63;2.20;;;;;;;;;;5011968;28;20211;-88
2023/07/01 06:19:56;;;;;;;7.07;2.67;;;;;;;;;;5012966;28;20243;-86
2023/07/01 06:22:24;;;;;;;3.60;2.30;;;;;;;;;;5011875;28;20231;-85
2023/07/01 06:24:51;;;;;;;4.13;2.63;;;;;;;;;;5011894;28;20238;-87
2023/07/01 06:27:18;;;;;;;4.63;2.40;;;;;;;;;;5011707;28;20665;-86
2023/07/01 06:29:45;;;;;;;6.00;2.53;;;;;;;;;;5011769;28;20243;-83
2023/07/01 06:32:12;;;;;;;3.77;2.17;;;;;;;;;;5011430;28;20204;-85
2023/07/01 06:34:39;;;;;;;2.70;2.30;;;;;;;;;;5011471;28;20235;-85
2023/07/01 06:37:08;;;;;;;5.70;2.20;;;;;;;;;;5011784;28;20212;-83
2023/07/01 06:39:35;;;;;;;4.97;2.30;;;;;;;;;;5011051;28;20246;-86
2023/07/01 06:42:02;;;;;;;2.95;2.10;;;;;;;;;;5011470;28;20228;-84
2023/07/01 06:44:29;;;;;;;2.83;2.17;;;;;;;;;;5011022;28;20235;-87
2023/07/01 06:46:56;;;;;;;2.45;1.85;;;;;;;;;;5011811;28;20211;-83
2023/07/01 06:49:23;;;;;;;2.92;2.08;;;;;;;;;;5010894;28;20247;-84
2023/07/01 06:51:50;;;;;;;5.20;2.20;;;;;;;;;;5011385;28;20204;-84
2023/07/01 06:54:19;;;;;;;3.88;1.98;;;;;;;;;;5011267;28;20247;-83
2023/07/01 06:56:46;;;;;;;3.42;2.38;;;;;;;;;;5011392;28;20274;-85
2023/07/01 06:59:13;;;;;;;2.75;2.25;;;;;;;;;;5011006;28;20243;-85
2023/07/01 07:01:40;;;;;;;4.03;2.03;;;;;;;;;;5011487;28;20242;-83
2023/07/01 07:04:08;;;;;;;3.90;2.15;;;;;;;;;;5011071;28;20266;-86
2023/07/01 07:06:35;;;;;;;4.10;2.20;;;;;;;;;;5011238;28;20732;-86
2023/07/01 07:09:03;;;;;;;4.88;2.30;;;;;;;;;;5013329;28;20243;-83
2023/07/01 07:11:32;;;;;;;2.35;2.15;;;;;;;;;;5014776;28;20199;-84
2023/07/01 07:13:59;;;;;;;3.13;1.92;;;;;;;;;;5014344;28;20235;-86
2023/07/01 07:16:27;;;;;;;2.17;2.00;;;;;;;;;;5014813;28;20203;-85
2023/07/01 07:18:54;;;;;;;3.63;2.22;;;;;;;;;;5013923;28;20643;-84
2023/07/01 07:21:21;;;;;;;5.10;2.30;;;;;;;;;;5015753;28;20227;-83
2023/07/01 07:23:48;;;;;;;6.75;2.30;;;;;;;;;;5014462;28;20230;-85
2023/07/01 07:26:15;;;;;;;2.50;2.20;;;;;;;;;;5015210;28;20211;-85
2023/07/01 07:28:44;;;;;;;4.65;2.25;;;;;;;;;;5013877;28;20243;-84
2023/07/01 07:31:11;;;;;;;3.28;2.25;;;;;;;;;;5014855;28;20200;-84
2023/07/01 07:33:38;;;;;;;3.80;2.53;;;;;;;;;;5013813;28;20607;-83
2023/07/01 07:36:05;;;;;;;3.00;2.15;;;;;;;;;;5014271;28;20207;-84
2023/07/01 07:38:32;;;;;;;3.90;2.20;;;;;;;;;;5013949;28;20266;-85
2023/07/01 07:40:59;;;;;;;2.40;2.10;;;;;;;;;;5014256;28;20565;-82
2023/07/01 07:43:26;;;;;;;4.82;2.30;;;;;;;;;;5014003;28;20242;-83
2023/07/01 07:45:55;;;;;;;2.72;2.10;;;;;;;;;;5014034;28;20222;-82
2023/07/01 07:48:22;;;;;;;3.30;2.55;;;;;;;;;;5013823;28;20235;-82
2023/07/01 07:50:49;;;;;;;2.88;2.50;;;;;;;;;;5014164;28;20207;-84
2023/07/01 07:53:16;;;;;;;2.30;2.10;;;;;;;;;;5013880;28;20231;-84
2023/07/01 07:55:43;;;;;;;4.32;2.00;;;;;;;;;;5014118;28;20211;-82
2023/07/01 07:58:10;;;;;;;2.65;2.20;;;;;;;;;;5013508;28;20238;-82
2023/07/01 08:00:37;;;;;;;4.07;2.50;;;;;;;;;;5014130;28;20239;-84
2023/07/01 08:03:06;;;;;;;3.03;2.20;;;;;;;;;;5013571;28;20233;-85
2023/07/01 08:05:33;;;;;;;3.28;2.45;;;;;;;;;;5013911;28;20688;-83
2023/07/01 08:08:00;;;;;;;3.30;2.70;;;;;;;;;;5013096;28;20214;-82
2023/07/01 08:10:27;;;;;;;2.83;2.03;;;;;;;;;;5014216;28;20227;-85
2023/07/01 08:12:54;;;;;;;3.55;2.78;;;;;;;;;;5013536;28;20238;-83
2023/07/01 08:15:21;;;;;;;3.83;2.72;;;;;;;;;;5013612;28;20215;-83
2023/07/01 08:17:48;;;;;;;7.07;2.15;;;;;;;;;;5013014;28;20669;-79
2023/07/01 08:20:16;;;;;;;4.93;2.35;;;;;;;;;;5012681;28;20235;-78
2023/07/01 08:22:44;;;;;;;5.07;2.28;;;;;;;;;;5013244;28;20231;-80
2023/07/01 08:25:11;;;;;;;3.50;1.63;;;;;;;;;;5012864;28;20241;-83
2023/07/01 08:27:38;;;;;;;2.83;1.77;;;;;;;;;;5013137;28;20633;-83
2023/07/01 08:30:05;;;;;;;2.30;1.77;;;;;;;;;;5012987;28;20717;-83
2023/07/01 08:32:33;;;;;;;3.15;1.88;;;;;;;;;;5013244;28;20211;-83
2023/07/01 08:35:00;;;;;;;3.20;1.98;;;;;;;;;;5012548;28;20235;-82
2023/07/01 08:37:29;;;;;;;2.35;1.85;;;;;;;;;;5013336;28;20207;-83
2023/07/01 08:39:57;;;;;;;4.90;1.73;;;;;;;;;;5012681;28;20239;-83
2023/07/01 08:42:25;;;;;;;2.45;1.90;;;;;;;;;;5013070;28;20736;-84
2023/07/01 08:44:53;;;;;;;3.90;1.88;;;;;;;;;;5012563;28;20241;-84
2023/07/01 08:47:21;;;;;;;3.20;1.70;;;;;;;;;;5012803;28;20199;-83
2023/07/01 08:49:49;;;;;;;2.40;1.92;;;;;;;;;;5013958;28;20250;-85
2023/07/01 08:52:19;;;;;;;18.85;3.28;;;;;;;;;;5013234;28;20199;-84
2023/07/01 08:54:47;;;;;;;2.95;1.90;;;;;;;;;;5012496;28;20235;-83
2023/07/01 08:57:15;;;;;;;2.20;1.60;;;;;;;;;;5013144;28;20207;-86
2023/07/01 08:59:43;;;;;;;1.58;1.48;;;;;;;;;;5012061;28;20242;-85
2023/07/01 09:02:10;;;;;;;3.65;1.88;;;;;;;;;;5012523;28;20238;-85
2023/07/01 09:04:38;;;;;;;3.15;1.55;;;;;;;;;;5011816;28;20251;-86
2023/07/01 09:07:06;;;;;;;3.75;1.75;;;;;;;;;;5012721;28;20269;-84
2023/07/01 09:09:34;;;;;;;1.60;1.50;;;;;;;;;;5012262;28;20764;-85
2023/07/01 09:12:02;;;;;;;3.63;1.75;;;;;;;;;;5012273;28;20207;-85
2023/07/01 09:14:57;;;;;;;4.78;1.98;;;;;;;;;;5011793;28;20264;-86
2023/07/01 09:17:27;;;;;;;2.97;1.42;;;;;;;;;;5012700;28;20211;-85
2023/07/01 09:19:54;;;;;;;3.33;1.98;;;;;;;;;;5012024;28;20235;-85
2023/07/01 09:22:21;;;;;;;1.25;1.15;;;;;;;;;;5012455;28;20322;-86
2023/07/01 09:24:48;;;;;;;2.83;1.90;;;;;;;;;;5011994;28;20234;-85
2023/07/01 09:27:16;;;;;;;24.98;3.42;;;;;;;;;;5012213;28;20214;-86
2023/07/01 09:29:44;;;;;;;4.05;1.50;;;;;;;;;;5011589;28;20246;-85
2023/07/01 09:32:11;;;;;;;2.75;1.60;;;;;;;;;;5012420;28;20226;-85
2023/07/01 09:34:55;;;;;;;4.78;2.45;;;;;;;;;;5011866;28;20285;-86
2023/07/01 09:37:22;;;;;;;27.63;3.67;;;;;;;;;;5011919;28;20579;-84
2023/07/01 09:39:50;;;;;;;18.05;2.40;;;;;;;;;;5010776;28;20607;-82
2023/07/01 09:42:18;;;;;;;1.70;1.60;;;;;;;;;;5011204;28;20231;-80
2023/07/01 09:45:00;;;;;;;7.22;1.90;;;;;;;;;;5010434;28;20231;-81
2023/07/01 09:47:27;;;;;;;10.68;3.42;;;;;;;;;;5011109;28;20583;-82
2023/07/01 09:49:54;;;;;;;3.15;1.60;;;;;;;;;;5010690;28;20238;-81
2023/07/01 09:52:31;;;;;;;2.65;1.58;;;;;;;;;;5011189;28;20199;-81
2023/07/01 09:54:59;;;;;;;5.53;1.75;;;;;;;;;;5010692;28;20317;-83
2023/07/01 09:57:27;;;;;;;7.63;1.70;;;;;;;;;;5010908;28;20204;-82
2023/07/01 09:59:54;;;;;;;2.92;2.10;;;;;;;;;;5014912;28;20241;-81
2023/07/01 10:02:22;;;;;;;3.72;1.65;;;;;;;;;;5030664;28;20237;-81
2023/07/01 10:04:49;;;;;;;2.30;2.10;;;;;;;;;;5030146;28;20771;-82
2023/07/01 10:07:16;;;;;;;1.58;1.33;;;;;;;;;;5030764;28;20225;-83
2023/07/01 10:09:46;;;;;;;1.58;1.42;;;;;;;;;;5030199;28;20249;-82
2023/07/01 10:12:15;;;;;;;1.13;1.05;;;;;;;;;;5030555;28;20206;-81
2023/07/01 10:14:47;;;;;;;1.95;1.50;;;;;;;;;;5030059;28;20283;-81
2023/07/01 10:17:15;;;;;;;1.60;1.50;;;;;;;;;;5030308;28;20633;-80
2023/07/01 10:19:46;;;;;;;1.40;1.33;;;;;;;;;;5030607;28;20743;-82
2023/07/01 10:22:23;;;;;;;1.70;1.60;;;;;;;;;;5031363;28;20230;-81
2023/07/01 10:24:58;;;;;;;1.83;1.35;;;;;;;;;;5030570;28;20254;-81
2023/07/01 10:27:46;;;;;;;1.88;1.30;;;;;;;;;;5030610;28;20244;-81
2023/07/01 10:30:15;;;;;;;1.83;1.02;;;;;;;;;;5026853;28;20226;-81
2023/07/01 10:32:43;;;;;;;2.20;1.38;;;;;;;;;;5031118;28;20203;-81
2023/07/01 10:35:11;;;;;;;1.95;1.23;;;;;;;;;;5030381;28;20261;-80
2023/07/01 10:37:38;;;;;;;2.00;1.60;;;;;;;;;;5030758;28;20329;-81
2023/07/01 10:40:26;;;;;;;1.50;1.35;;;;;;;;;;5030584;28;20238;-81
2023/07/01 10:43:15;;;;;;;2.10;1.33;;;;;;;;;;5032999;28;20222;-80
2023/07/01 10:45:43;;;;;;;1.40;1.30;;;;;;;;;;5034263;28;20215;-81
2023/07/01 10:48:14;;;;;;;1.95;1.38;;;;;;;;;;5033657;28;20239;-81
2023/07/01 10:50:56;;;;;;;1.23;1.13;;;;;;;;;;5034333;28;20202;-82
2023/07/01 10:53:23;;;;;;;1.50;1.40;;;;;;;;;;5033635;28;20246;-81
2023/07/01 10:55:50;;;;;;;2.65;1.38;;;;;;;;;;5034071;28;20237;-81
2023/07/01 10:58:21;;;;;;;2.08;1.17;;;;;;;;;;5033406;28;20234;-81
2023/07/01 11:00:49;;;;;;;1.20;1.17;;;;;;;;;;5034528;28;20294;-80
2023/07/01 11:03:34;;;;;;;2.85;1.25;;;;;;;;;;5034033;28;20234;-81
2023/07/01 11:06:02;;;;;;;1.50;1.15;;;;;;;;;;5034243;28;20214;-81
2023/07/01 11:08:30;;;;;;;1.23;1.23;;;;;;;;;;5034188;28;20261;-81
2023/07/01 11:10:57;;;;;;;4.20;1.50;;;;;;;;;;5034373;28;20214;-81
2023/07/01 11:13:26;;;;;;;2.65;1.10;;;;;;;;;;5033412;28;20242;-81
2023/07/01 11:16:04;;;;;;;3.03;1.35;;;;;;;;;;5033999;28;20202;-82
2023/07/01 11:18:41;;;;;;;1.55;1.25;;;;;;;;;;5033278;28;20242;-81
2023/07/01 11:21:10;;;;;;;1.52;1.40;;;;;;;;;;5033621;28;20305;-81
2023/07/01 11:23:37;;;;;;;2.50;1.40;;;;;;;;;;5033087;28;20317;-82
2023/07/01 11:26:04;;;;;;;2.08;1.30;;;;;;;;;;5033399;28;20214;-81
2023/07/01 11:28:35;;;;;;;1.67;1.27;;;;;;;;;;5033868;28;20239;-82
2023/07/01 11:31:16;;;;;;;2.17;1.38;;;;;;;;;;5033786;28;20210;-82
2023/07/01 11:33:46;;;;;;;1.42;1.08;;;;;;;;;;5033561;28;20317;-81
2023/07/01 11:36:16;;;;;;;3.08;1.38;;;;;;;;;;5033658;28;20302;-80
2023/07/01 11:38:45;;;;;;;2.38;1.27;;;;;;;;;;5033622;28;20245;-80
2023/07/01 11:41:14;;;;;;;2.17;1.67;;;;;;;;;;5034127;28;20215;-81
2023/07/01 11:43:41;;;;;;;1.63;1.52;;;;;;;;;;5033424;28;20273;-82
2023/07/01 11:46:09;;;;;;;1.50;1.40;;;;;;;;;;5033731;28;20635;-81
2023/07/01 11:48:37;;;;;;;2.60;1.67;;;;;;;;;;5033187;28;20238;-81
2023/07/01 11:51:04;;;;;;;2.58;1.65;;;;;;;;;;5033729;28;20570;-81
2023/07/01 11:53:31;;;;;;;1.40;1.30;;;;;;;;;;5032415;28;20234;-82
2023/07/01 11:56:01;;;;;;;2.05;1.20;;;;;;;;;;5033273;28;20541;-81
2023/07/01 11:58:29;;;;;;;1.52;1.35;;;;;;;;;;5032404;28;20341;-82
2023/07/01 12:00:56;;;;;;;1.90;1.63;;;;;;;;;;5033109;28;20688;-82
2023/07/01 12:03:23;;;;;;;1.70;1.40;;;;;;;;;;5032368;28;20715;-81
2023/07/01 12:05:52;;;;;;;2.22;1.60;;;;;;;;;;5033006;28;20210;-80
2023/07/01 12:08:19;;;;;;;1.75;1.65;;;;;;;;;;5032348;28;20234;-79
2023/07/01 12:10:46;;;;;;;1.67;1.50;;;;;;;;;;5033116;28;20233;-80
2023/07/01 12:13:29;;;;;;;1.55;1.33;;;;;;;;;;5032503;28;20589;-80
2023/07/01 12:15:56;;;;;;;2.22;1.60;;;;;;;;;;5032509;28;20623;-81
2023/07/01 12:18:26;;;;;;;3.03;1.55;;;;;;;;;;5031878;28;20255;-81
2023/07/01 12:20:55;;;;;;;1.45;1.35;;;;;;;;;;5032978;28;20638;-81
2023/07/01 12:23:22;;;;;;;1.95;1.80;;;;;;;;;;5032177;28;20239;-80
2023/07/01 12:25:49;;;;;;;2.25;1.50;;;;;;;;;;5032799;28;20359;-80
2023/07/01 12:28:16;;;;;;;1.88;1.50;;;;;;;;;;5031555;28;20245;-81
2023/07/01 12:30:44;;;;;;;1.92;1.67;;;;;;;;;;5032805;28;20207;-80
2023/07/01 12:33:11;;;;;;;2.00;1.80;;;;;;;;;;5032530;28;20262;-82
2023/07/01 12:35:40;;;;;;;5.40;1.80;;;;;;;;;;5032785;28;20222;-82
2023/07/01 12:38:11;;;;;;;2.72;1.83;;;;;;;;;;5032233;28;20254;-81
2023/07/01 12:40:38;;;;;;;21.23;1.98;;;;;;;;;;5032889;28;20210;-81
2023/07/01 12:43:06;;;;;;;18.88;3.38;;;;;;;;;;5031680;28;20222;-82
2023/07/01 12:45:34;;;;;;;3.20;1.50;;;;;;;;;;5032079;28;20280;-82
2023/07/01 12:48:01;;;;;;;1.75;1.50;;;;;;;;;;5031256;28;20226;-81
2023/07/01 12:50:28;;;;;;;2.40;1.83;;;;;;;;;;5031903;28;20673;-81
2023/07/01 12:52:55;;;;;;;1.42;1.33;;;;;;;;;;5031473;28;20207;-82
2023/07/01 12:55:23;;;;;;;3.00;1.73;;;;;;;;;;5032364;28;20233;-80
2023/07/01 12:57:50;;;;;;;5.13;1.70;;;;;;;;;;5031254;28;20676;-83
2023/07/01 13:00:17;;;;;;;1.90;1.60;;;;;;;;;;5031758;28;20652;-82
2023/07/01 13:02:45;;;;;;;1.90;1.70;;;;;;;;;;5032187;28;20234;-81
2023/07/01 13:05:15;;;;;;;5.00;1.60;;;;;;;;;;5031124;28;20242;-81
2023/07/01 13:07:42;;;;;;;2.50;1.80;;;;;;;;;;5031919;28;20206;-82
2023/07/01 13:10:10;;;;;;;1.67;1.58;;;;;;;;;;5030957;28;20241;-81
2023/07/01 13:12:39;;;;;;;1.50;1.30;;;;;;;;;;5031788;28;20706;-83
2023/07/01 13:15:07;;;;;;;2.13;1.92;;;;;;;;;;5031375;28;20720;-81
2023/07/01 13:17:37;;;;;;;2.13;1.42;;;;;;;;;;5031749;28;20210;-82
2023/07/01 13:20:06;;;;;;;3.45;1.65;;;;;;;;;;5030635;28;20273;-81
2023/07/01 13:22:33;;;;;;;1.67;1.58;;;;;;;;;;5031630;28;20577;-82
2023/07/01 13:25:01;;;;;;;3.25;1.70;;;;;;;;;;5031469;28;20619;-81
2023/07/01 13:27:28;;;;;;;1.88;1.70;;;;;;;;;;5031846;28;20202;-81
2023/07/01 13:29:57;;;;;;;1.48;1.38;;;;;;;;;;5031314;28;20246;-80
2023/07/01 13:32:24;;;;;;;1.75;1.40;;;;;;;;;;5031440;28;20212;-82
2023/07/01 13:34:52;;;;;;;7.78;2.13;;;;;;;;;;5031396;28;20593;-80
2023/07/01 13:37:19;;;;;;;1.55;1.42;;;;;;;;;;5031600;28;20207;-82
2023/07/01 13:39:48;;;;;;;1.60;1.50;;;;;;;;;;5031036;28;20315;-82
2023/07/01 13:42:16;;;;;;;2.85;1.73;;;;;;;;;;5031550;28;20211;-82
2023/07/01 13:44:43;;;;;;;1.80;1.42;;;;;;;;;;5030929;28;20326;-82
2023/07/01 13:47:13;;;;;;;1.73;1.63;;;;;;;;;;5031240;28;20210;-81
2023/07/01 13:49:40;;;;;;;2.83;1.70;;;;;;;;;;5030910;28;20246;-81
2023/07/01 13:52:08;;;;;;;1.85;1.75;;;;;;;;;;5031115;28;20207;-82
2023/07/01 13:54:35;;;;;;;3.38;2.03;;;;;;;;;;5031313;28;20234;-81
2023/07/01 13:57:02;;;;;;;1.98;1.80;;;;;;;;;;5031204;28;20210;-81
2023/07/01 13:59:30;;;;;;;3.35;1.70;;;;;;;;;;5030941;28;20246;-82
2023/07/01 14:01:58;;;;;;;2.08;1.73;;;;;;;;;;5031642;28;20634;-81
2023/07/01 14:04:27;;;;;;;2.65;1.83;;;;;;;;;;5031124;28;20330;-83
2023/07/01 14:06:55;;;;;;;4.13;1.70;;;;;;;;;;5031513;28;20213;-83
2023/07/01 14:09:22;;;;;;;2.13;1.42;;;;;;;;;;5030800;28;20705;-82
2023/07/01 14:11:49;;;;;;;2.15;1.70;;;;;;;;;;5031571;28;20564;-81
2023/07/01 14:14:19;;;;;;;2.33;1.67;;;;;;;;;;5030999;28;20238;-83
2023/07/01 14:16:47;;;;;;;2.00;1.80;;;;;;;;;;5032789;28;20297;-81
2023/07/01 14:19:16;;;;;;;3.50;1.75;;;;;;;;;;5034787;28;20262;-81
2023/07/01 14:21:47;;;;;;;2.53;1.60;;;;;;;;;;5035835;28;20640;-81
2023/07/01 14:24:19;;;;;;;3.75;2.05;;;;;;;;;;5034830;28;20242;-82
2023/07/01 14:26:48;;;;;;;1.60;1.50;;;;;;;;;;5035582;28;20214;-81
2023/07/01 14:29:16;;;;;;;1.70;1.60;;;;;;;;;;5034518;28;20242;-82
2023/07/01 14:31:46;;;;;;;1.90;1.48;;;;;;;;;;5035325;28;20722;-82
2023/07/01 14:34:13;;;;;;;1.75;1.42;;;;;;;;;;5034753;28;20379;-80
2023/07/01 14:36:41;;;;;;;2.05;1.60;;;;;;;;;;5035174;28;20297;-82
2023/07/01 14:39:10;;;;;;;1.92;1.70;;;;;;;;;;5034404;28;20662;-81
2023/07/01 14:41:38;;;;;;;3.45;1.80;;;;;;;;;;5035147;28;20211;-82
2023/07/01 14:44:06;;;;;;;2.53;2.13;;;;;;;;;;5034656;28;20230;-81
2023/07/01 14:46:34;;;;;;;1.33;1.23;;;;;;;;;;5034937;28;20257;-82
2023/07/01 14:49:01;;;;;;;2.97;1.48;;;;;;;;;;5034561;28;20249;-82
2023/07/01 14:51:28;;;;;;;4.40;1.52;;;;;;;;;;5035076;28;20214;-82
2023/07/01 14:53:55;;;;;;;2.22;1.58;;;;;;;;;;5034529;28;20230;-81
2023/07/01 14:56:24;;;;;;;3.80;1.75;;;;;;;;;;5034728;28;20210;-80
2023/07/01 14:58:52;;;;;;;1.45;1.35;;;;;;;;;;5034432;28;20261;-81
2023/07/01 15:01:20;;;;;;;1.70;1.30;;;;;;;;;;5034759;28;20205;-82
2023/07/01 15:03:47;;;;;;;1.73;1.60;;;;;;;;;;5034324;28;20242;-83
2023/07/01 15:06:14;;;;;;;1.55;1.45;;;;;;;;;;5034509;28;20207;-82
2023/07/01 15:08:42;;;;;;;3.22;1.60;;;;;;;;;;5034017;28;20348;-82
2023/07/01 15:11:09;;;;;;;1.95;1.33;;;;;;;;;;5034339;28;20206;-82
2023/07/01 15:13:37;;;;;;;2.15;1.50;;;;;;;;;;5034181;28;20227;-85
2023/07/01 15:16:05;;;;;;;1.52;1.42;;;;;;;;;;5034663;28;20210;-84
2023/07/01 15:18:32;;;;;;;2.92;1.80;;;;;;;;;;5033659;28;20720;-85
2023/07/01 15:21:00;;;;;;;1.73;1.63;;;;;;;;;;5034453;28;20215;-84
2023/07/01 15:23:27;;;;;;;2.40;1.60;;;;;;;;;;5033840;28;20235;-85
2023/07/01 15:25:55;;;;;;;2.03;1.77;;;;;;;;;;5034771;28;20207;-84
2023/07/01 15:28:22;;;;;;;2.20;1.55;;;;;;;;;;5032232;28;20693;-84
2023/07/01 15:30:50;;;;;;;1.60;1.50;;;;;;;;;;5034613;28;20207;-84
2023/07/01 15:33:18;;;;;;;3.53;1.88;;;;;;;;;;5033819;28;20234;-84
2023/07/01 15:35:45;;;;;;;1.75;1.50;;;;;;;;;;5034181;28;20327;-84
2023/07/01 15:38:12;;;;;;;1.50;1.38;;;;;;;;;;5034005;28;20570;-82
2023/07/01 15:40:40;;;;;;;1.45;1.35;;;;;;;;;;5034235;28;20210;-84
2023/07/01 15:43:07;;;;;;;2.67;1.80;;;;;;;;;;5033482;28;20688;-83
2023/07/01 15:45:34;;;;;;;1.40;1.30;;;;;;;;;;5034144;28;20258;-83
2023/07/01 15:48:02;;;;;;;2.10;1.40;;;;;;;;;;5033778;28;20215;-83
2023/07/01 15:50:29;;;;;;;1.85;1.65;;;;;;;;;;5034112;28;20210;-83
2023/07/01 15:52:56;;;;;;;2.03;1.67;;;;;;;;;;5033421;28;20215;-84
2023/07/01 15:55:23;;;;;;;1.83;1.40;;;;;;;;;;5033743;28;20213;-84
2023/07/01 15:57:51;;;;;;;1.83;1.63;;;;;;;;;;5033192;28;20207;-84
2023/07/01 16:00:18;;;;;;;2.20;1.50;;;;;;;;;;5033434;28;20199;-83
2023/07/01 16:02:45;;;;;;;2.55;1.75;;;;;;;;;;5033833;28;20210;-83
2023/07/01 16:05:15;;;;;;;1.80;1.70;;;;;;;;;;5033228;28;20258;-82
2023/07/01 16:08:09;;;;;;;1.88;1.60;;;;;;;;;;5033280;28;20207;-83
2023/07/01 16:10:36;;;;;;;3.13;1.52;;;;;;;;;;5033221;28;20222;-82
2023/07/01 16:13:05;;;;;;;3.03;1.55;;;;;;;;;;5032910;28;20247;-83
2023/07/01 16:15:33;;;;;;;1.77;1.63;;;;;;;;;;5033362;28;20261;-81
2023/07/01 16:18:06;;;;;;;2.88;1.52;;;;;;;;;;5032788;28;20669;-82
2023/07/01 16:20:48;;;;;;;2.97;2.17;;;;;;;;;;5033267;28;20574;-81
2023/07/01 16:23:18;;;;;;;3.20;1.63;;;;;;;;;;5032746;28;20230;-80
2023/07/01 16:25:45;;;;;;;1.60;1.50;;;;;;;;;;5033588;28;20266;-82
2023/07/01 16:28:25;;;;;;;2.35;1.85;;;;;;;;;;5032666;28;20235;-81
2023/07/01 16:30:52;;;;;;;1.60;1.38;;;;;;;;;;5033242;28;20214;-81
2023/07/01 16:33:19;;;;;;;1.95;1.70;;;;;;;;;;5032419;28;20234;-81
2023/07/01 16:36:08;;;;;;;1.45;1.35;;;;;;;;;;5032810;28;20788;-81
2023/07/01 16:38:37;;;;;;;1.92;1.55;;;;;;;;;;5032041;28;20731;-81
2023/07/01 16:41:04;;;;;;;4.40;2.53;;;;;;;;;;5032749;28;20213;-81
2023/07/01 16:43:35;;;;;;;1.90;1.73;;;;;;;;;;5032273;28;20234;-81
2023/07/01 16:46:02;;;;;;;1.85;1.50;;;;;;;;;;5032955;28;20580;-81
2023/07/01 16:48:38;;;;;;;2.10;1.25;;;;;;;;;;5032209;28;20250;-81
2023/07/01 16:51:05;;;;;;;2.25;1.50;;;;;;;;;;5033081;28;20201;-81
2023/07/01 16:53:34;;;;;;;1.63;1.45;;;;;;;;;;5032405;28;20242;-80
2023/07/01 16:56:02;;;;;;;2.63;1.50;;;;;;;;;;5032483;28;20677;-82